Time;durP1;ratioP1;P1;durP2;ratioP2;P2;SDS_P1;SDS_P2;PMS_P1;PMS_P2;Temp;Humidity;BMP_temperature;BMP_pressure;BME280_temperature;BME280_humidity;BME280_pressure;Samples;Min_cycle;Max_cycle;Signal;HPM_P1;HPM_P2
2023/09/10 00:01:06;;;;;;;;;;;;;;;27.88;38.74;100744.19;5117180;28;20006;-65
2023/09/10 00:03:32;;;;;;;;;;;;;;;27.85;39.33;100742.03;5096450;28;20014;-65
2023/09/10 00:05:59;;;;;;;;;;;;;;;27.89;39.01;100735.63;5096717;28;19912;-65
2023/09/10 00:08:24;;;;;;;;;;;;;;;27.93;38.59;100742.19;5095228;28;19912;-65
2023/09/10 00:10:50;;;;;;;;;;;;;;;28.02;38.80;100744.25;5096503;28;20382;-65
2023/09/10 00:13:15;;;;;;;;;;;;;;;28.05;38.81;100744.47;5096535;28;19955;-65
2023/09/10 00:15:40;;;;;;;;;;;;;;;28.02;38.67;100744.25;5096542;28;19912;-66
2023/09/10 00:18:06;;;;;;;;;;;;;;;28.03;39.01;100735.66;5097354;28;19947;-65
2023/09/10 00:20:31;;;;;;;;;;;;;;;28.07;38.52;100736.69;5096176;28;20124;-65
2023/09/10 00:22:56;;;;;;;;;;;;;;;28.00;38.72;100737.06;5095876;28;19912;-65
2023/09/10 00:25:22;;;;;;;;;;;;;;;28.05;38.67;100738.94;5096404;28;19920;-65
2023/09/10 00:27:47;;;;;;;;;;;;;;;28.08;38.82;100741.09;5096298;28;20312;-65
2023/09/10 00:30:12;;;;;;;;;;;;;;;28.17;38.65;100746.72;5096273;28;19967;-66
2023/09/10 00:32:38;;;;;;;;;;;;;;;28.18;38.42;100748.38;5096137;28;20368;-66
2023/09/10 00:35:03;;;;;;;;;;;;;;;28.15;38.70;100735.16;5081050;28;19912;-66
2023/09/10 00:37:28;;;;;;;;;;;;;;;28.14;38.34;100744.59;5076403;28;19921;-66
2023/09/10 00:39:54;;;;;;;;;;;;;;;27.92;38.79;100743.31;5075881;28;19912;-65
2023/09/10 00:42:19;;;;;;;;;;;;;;;27.86;39.05;100738.13;5079719;28;19916;-65
2023/09/10 00:44:44;;;;;;;;;;;;;;;27.93;39.15;100741.38;5096848;28;19948;-65
2023/09/10 00:47:09;;;;;;;;;;;;;;;27.88;38.96;100745.03;5096161;28;19934;-65
2023/09/10 00:49:35;;;;;;;;;;;;;;;27.85;38.66;100734.56;5095689;28;19912;-65
2023/09/10 00:52:00;;;;;;;;;;;;;;;27.86;39.29;100736.22;5095544;28;19912;-65
2023/09/10 00:54:30;;;;;;;;;;;;;;;27.93;39.04;100742.19;5095000;28;19912;-65
2023/09/10 00:56:55;;;;;;;;;;;;;;;27.92;38.85;100740.56;5095579;28;20418;-65
2023/09/10 00:59:20;;;;;;;;;;;;;;;27.96;38.67;100741.56;5095310;28;19912;-65
2023/09/10 01:01:46;;;;;;;;;;;;;;;27.92;38.84;100734.22;5095066;28;19916;-65
2023/09/10 01:04:12;;;;;;;;;;;;;;;27.78;39.41;100739.66;5095226;28;20141;-65
2023/09/10 01:06:38;;;;;;;;;;;;;;;27.76;39.02;100739.97;5095469;28;20361;-66
2023/09/10 01:09:04;;;;;;;;;;;;;;;27.71;39.32;100742.00;5094327;28;19957;-66
2023/09/10 01:11:47;;;;;;;;;;;;;;;27.70;39.42;100737.59;5095545;28;20045;-65
2023/09/10 01:14:21;;;;;;;;;;;;;;;27.78;38.94;100736.91;5095641;28;19912;-65
2023/09/10 01:16:58;;;;;;;;;;;;;;;27.79;38.97;100735.78;5095644;28;19916;-65
2023/09/10 01:19:26;;;;;;;;;;;;;;;27.84;38.89;100741.22;5095068;28;19912;-65
2023/09/10 01:21:55;;;;;;;;;;;;;;;27.75;39.06;100746.63;5095087;28;20420;-65
2023/09/10 01:24:24;;;;;;;;;;;;;;;27.82;39.07;100743.44;5094889;28;19974;-65
2023/09/10 01:26:56;;;;;;;;;;;;;;;27.87;39.19;100750.84;5094643;28;19923;-65
2023/09/10 01:29:22;;;;;;;;;;;;;;;27.90;39.12;100737.28;5094730;28;19912;-65
2023/09/10 01:31:51;;;;;;;;;;;;;;;27.92;39.02;100743.31;5076136;28;19912;-65
2023/09/10 01:34:20;;;;;;;;;;;;;;;27.93;39.13;100741.38;5074913;28;20376;-65
2023/09/10 01:36:49;;;;;;;;;;;;;;;27.93;38.94;100738.59;5076409;28;19948;-66
2023/09/10 01:39:17;;;;;;;;;;;;;;;27.92;38.80;100735.03;5094884;28;19912;-66
2023/09/10 01:41:43;;;;;;;;;;;;;;;27.97;38.83;100743.22;5094744;28;19920;-65
2023/09/10 01:44:09;;;;;;;;;;;;;;;27.95;38.95;100741.88;5094373;28;19924;-65
2023/09/10 01:46:36;;;;;;;;;;;;;;;27.85;39.11;100748.38;5094482;28;19912;-65
2023/09/10 01:49:01;;;;;;;;;;;;;;;27.86;39.00;100744.50;5094739;28;20049;-65
2023/09/10 01:51:27;;;;;;;;;;;;;;;27.76;39.41;100748.25;5094356;28;20380;-65
2023/09/10 01:53:52;;;;;;;;;;;;;;;27.59;39.47;100736.97;5093861;28;20006;-65
2023/09/10 01:56:17;;;;;;;;;;;;;;;27.65;39.19;100741.25;5094437;28;19912;-65
2023/09/10 01:58:43;;;;;;;;;;;;;;;27.76;39.15;100744.66;5094354;28;20240;-65
2023/09/10 02:01:08;;;;;;;;;;;;;;;27.80;39.06;100737.41;5094704;28;19943;-65
2023/09/10 02:03:33;;;;;;;;;;;;;;;27.81;39.07;100741.81;5093904;28;19988;-65
2023/09/10 02:06:03;;;;;;;;;;;;;;;27.88;39.14;100742.25;5094686;28;19916;-65
2023/09/10 02:08:28;;;;;;;;;;;;;;;27.88;38.92;100728.44;5094536;28;20329;-65
2023/09/10 02:10:53;;;;;;;;;;;;;;;27.83;39.09;100734.06;5094657;28;20007;-65
2023/09/10 02:13:18;;;;;;;;;;;;;;;27.86;39.00;100733.47;5094266;28;19914;-65
2023/09/10 02:15:44;;;;;;;;;;;;;;;27.90;39.16;100731.75;5094449;28;20285;-66
2023/09/10 02:18:09;;;;;;;;;;;;;;;27.74;39.03;100738.63;5094656;28;19934;-66
2023/09/10 02:20:36;;;;;;;;;;;;;;;27.80;39.06;100726.38;5093988;28;19919;-66
2023/09/10 02:23:01;;;;;;;;;;;;;;;27.81;39.06;100723.31;5093943;28;19926;-66
2023/09/10 02:25:27;;;;;;;;;;;;;;;27.82;38.65;100726.88;5093644;28;20022;-66
2023/09/10 02:27:52;;;;;;;;;;;;;;;27.84;38.56;100732.09;5093928;28;19967;-66
2023/09/10 02:30:17;;;;;;;;;;;;;;;27.71;39.16;100722.66;5094107;28;20015;-66
2023/09/10 02:32:42;;;;;;;;;;;;;;;27.74;38.73;100720.13;5093662;28;19919;-65
2023/09/10 02:35:08;;;;;;;;;;;;;;;27.78;39.13;100720.34;5093834;28;19958;-65
2023/09/10 02:37:33;;;;;;;;;;;;;;;27.71;38.97;100719.91;5093859;28;19916;-65
2023/09/10 02:39:58;;;;;;;;;;;;;;;27.63;39.22;100726.94;5093921;28;19918;-65
2023/09/10 02:42:25;;;;;;;;;;;;;;;27.68;38.93;100723.28;5093742;28;19916;-65
2023/09/10 02:44:50;;;;;;;;;;;;;;;27.58;39.35;100730.63;5093588;28;19984;-66
2023/09/10 02:47:16;;;;;;;;;;;;;;;27.58;39.35;100716.84;5093664;28;19916;-66
2023/09/10 02:49:41;;;;;;;;;;;;;;;27.63;39.30;100723.38;5093531;28;19912;-66
2023/09/10 02:52:06;;;;;;;;;;;;;;;27.67;39.21;100733.50;5092148;28;19935;-66
2023/09/10 02:54:33;;;;;;;;;;;;;;;27.65;39.00;100730.22;5092911;28;20384;-66
2023/09/10 02:56:58;;;;;;;;;;;;;;;27.67;39.06;100738.19;5093265;28;19965;-66
2023/09/10 02:59:25;;;;;;;;;;;;;;;27.69;39.33;100741.47;5093203;28;19912;-66
2023/09/10 03:01:50;;;;;;;;;;;;;;;27.38;38.93;100700.63;5093566;28;19965;-66
2023/09/10 03:04:16;;;;;;;;;;;;;;;27.55;39.36;100747.78;5093216;28;20319;-66
2023/09/10 03:06:42;;;;;;;;;;;;;;;27.52;39.10;100742.84;5093372;28;19944;-66
2023/09/10 03:09:07;;;;;;;;;;;;;;;27.52;39.00;100740.09;5093419;28;19913;-66
2023/09/10 03:11:35;;;;;;;;;;;;;;;27.65;39.16;100735.75;5093145;28;19918;-67
2023/09/10 03:14:01;;;;;;;;;;;;;;;27.69;38.81;100730.44;5093498;28;20318;-66
2023/09/10 03:16:26;;;;;;;;;;;;;;;27.61;38.97;100729.19;5093528;28;20002;-66
2023/09/10 03:18:51;;;;;;;;;;;;;;;27.62;39.51;100719.81;5093197;28;19924;-66
2023/09/10 03:21:16;;;;;;;;;;;;;;;27.68;39.05;100729.63;5093153;28;19935;-65
2023/09/10 03:23:41;;;;;;;;;;;;;;;27.59;39.23;100723.97;5092891;28;19927;-65
2023/09/10 03:26:10;;;;;;;;;;;;;;;27.53;39.45;100732.66;5093342;28;19912;-65
2023/09/10 03:28:35;;;;;;;;;;;;;;;27.48;39.36;100736.31;5093125;28;19912;-65
2023/09/10 03:31:00;;;;;;;;;;;;;;;27.46;39.32;100737.72;5093260;28;19919;-66
2023/09/10 03:33:25;;;;;;;;;;;;;;;27.39;39.72;100724.31;5095599;28;20376;-66
2023/09/10 03:35:51;;;;;;;;;;;;;;;27.32;39.94;100732.97;5097284;28;19919;-66
2023/09/10 03:38:16;;;;;;;;;;;;;;;27.44;39.47;100727.00;5097010;28;19916;-66
2023/09/10 03:40:41;;;;;;;;;;;;;;;27.35;39.66;100721.34;5096922;28;19912;-66
2023/09/10 03:43:06;;;;;;;;;;;;;;;27.27;39.80;100735.81;5096826;28;19965;-66
2023/09/10 03:45:32;;;;;;;;;;;;;;;27.31;39.64;100730.53;5097000;28;19963;-66
2023/09/10 03:47:57;;;;;;;;;;;;;;;27.27;39.65;100733.06;5096809;28;19962;-66
2023/09/10 03:50:22;;;;;;;;;;;;;;;27.32;39.52;100730.22;5095633;28;19952;-66
2023/09/10 03:52:48;;;;;;;;;;;;;;;27.34;39.53;100729.91;5096847;28;19919;-66
2023/09/10 03:55:13;;;;;;;;;;;;;;;27.35;39.50;100724.09;5096393;28;19912;-66
2023/09/10 03:57:38;;;;;;;;;;;;;;;27.36;39.39;100734.03;5096613;28;20465;-66
2023/09/10 04:00:04;;;;;;;;;;;;;;;27.39;39.55;100727.88;5096500;28;19913;-66
2023/09/10 04:02:30;;;;;;;;;;;;;;;27.33;39.67;100731.03;5096295;28;19938;-66
2023/09/10 04:04:56;;;;;;;;;;;;;;;27.32;39.78;100732.16;5096377;28;20002;-66
2023/09/10 04:07:21;;;;;;;;;;;;;;;27.32;39.76;100732.16;5096389;28;19982;-66
2023/09/10 04:09:46;;;;;;;;;;;;;;;27.30;39.62;100724.16;5096865;28;19912;-66
2023/09/10 04:12:11;;;;;;;;;;;;;;;27.28;39.79;100725.59;5096403;28;19930;-66
2023/09/10 04:14:37;;;;;;;;;;;;;;;27.31;39.71;100730.53;5096534;28;19912;-66
2023/09/10 04:17:02;;;;;;;;;;;;;;;27.31;39.87;100730.53;5096519;28;20429;-66
2023/09/10 04:19:27;;;;;;;;;;;;;;;27.34;39.71;100733.50;5096468;28;19947;-66
2023/09/10 04:21:54;;;;;;;;;;;;;;;27.39;39.70;100729.81;5096374;28;19912;-66
2023/09/10 04:24:19;;;;;;;;;;;;;;;27.36;39.67;100717.47;5095965;28;19916;-66
2023/09/10 04:26:44;;;;;;;;;;;;;;;27.47;39.57;100722.81;5096015;28;19912;-66
2023/09/10 04:29:09;;;;;;;;;;;;;;;27.47;39.52;100726.41;5096042;28;19941;-66
2023/09/10 04:31:42;;;;;;;;;;;;;;;27.49;39.64;100726.06;5095931;28;19961;-66
2023/09/10 04:34:07;;;;;;;;;;;;;;;27.53;39.43;100729.91;5096247;28;19912;-66
2023/09/10 04:36:32;;;;;;;;;;;;;;;27.33;39.63;100720.81;5096066;28;19912;-66
2023/09/10 04:38:58;;;;;;;;;;;;;;;27.29;39.77;100719.78;5096001;28;19916;-66
2023/09/10 04:41:23;;;;;;;;;;;;;;;27.43;39.52;100722.59;5095988;28;19919;-66
2023/09/10 04:43:48;;;;;;;;;;;;;;;27.45;39.52;100730.56;5095336;28;19962;-66
2023/09/10 04:46:14;;;;;;;;;;;;;;;27.45;39.41;100730.56;5095638;28;19961;-66
2023/09/10 04:48:39;;;;;;;;;;;;;;;27.42;39.50;100732.81;5095603;28;19919;-65
2023/09/10 04:51:04;;;;;;;;;;;;;;;27.44;39.40;100738.03;5095547;28;19912;-65
2023/09/10 04:53:30;;;;;;;;;;;;;;;27.46;39.36;100737.72;5095458;28;19912;-65
2023/09/10 04:55:55;;;;;;;;;;;;;;;27.44;39.24;100728.94;5094767;28;20325;-66
2023/09/10 04:58:21;;;;;;;;;;;;;;;27.45;39.30;100738.84;5095442;28;19958;-65
2023/09/10 05:00:47;;;;;;;;;;;;;;;27.42;39.62;100738.31;5095748;28;19965;-65
2023/09/10 05:03:13;;;;;;;;;;;;;;;27.32;39.61;100737.66;5094947;28;19916;-65
2023/09/10 05:05:38;;;;;;;;;;;;;;;27.18;40.06;100737.59;5095462;28;19923;-65
2023/09/10 05:08:03;;;;;;;;;;;;;;;27.29;39.46;100749.31;5095340;28;19961;-65
2023/09/10 05:10:29;;;;;;;;;;;;;;;27.27;39.71;100746.03;5095375;28;19957;-66
2023/09/10 05:12:54;;;;;;;;;;;;;;;27.35;39.45;100745.34;5095381;28;19923;-66
2023/09/10 05:15:19;;;;;;;;;;;;;;;27.36;39.40;100745.06;5095403;28;19912;-66
2023/09/10 05:17:45;;;;;;;;;;;;;;;27.45;39.36;100742.44;5095114;28;19912;-66
2023/09/10 05:20:10;;;;;;;;;;;;;;;27.45;39.43;100749.88;5095263;28;19959;-65
2023/09/10 05:22:35;;;;;;;;;;;;;;;27.40;39.49;100740.56;5094899;28;19937;-65
2023/09/10 05:25:02;;;;;;;;;;;;;;;27.37;39.38;100745.88;5095066;28;19965;-65
2023/09/10 05:27:27;;;;;;;;;;;;;;;27.41;39.30;100744.13;5094781;28;19916;-65
2023/09/10 05:29:53;;;;;;;;;;;;;;;27.37;39.54;100737.59;5094999;28;19920;-65
2023/09/10 05:32:18;;;;;;;;;;;;;;;27.38;39.27;100739.25;5094765;28;19919;-65
2023/09/10 05:34:43;;;;;;;;;;;;;;;27.30;39.63;100743.47;5094951;28;19924;-65
2023/09/10 05:37:09;;;;;;;;;;;;;;;27.30;39.70;100748.19;5095047;28;19955;-65
2023/09/10 05:39:34;;;;;;;;;;;;;;;27.41;39.53;100749.66;5094768;28;19947;-65
2023/09/10 05:42:00;;;;;;;;;;;;;;;27.47;39.39;100751.22;5094700;28;19913;-65
2023/09/10 05:44:25;;;;;;;;;;;;;;;27.44;39.52;100751.81;5094631;28;20403;-65
2023/09/10 05:46:50;;;;;;;;;;;;;;;27.38;39.63;100753.03;5094529;28;20403;-65
2023/09/10 05:49:15;;;;;;;;;;;;;;;27.39;39.36;100754.66;5094690;28;19964;-65
2023/09/10 05:51:41;;;;;;;;;;;;;;;27.44;39.43;100753.78;5094390;28;19993;-65
2023/09/10 05:54:06;;;;;;;;;;;;;;;27.48;39.38;100749.28;5093723;28;19919;-65
2023/09/10 05:56:31;;;;;;;;;;;;;;;27.44;39.43;100762.03;5093911;28;19915;-65
2023/09/10 05:58:56;;;;;;;;;;;;;;;27.33;39.64;100753.91;5094383;28;20332;-65
2023/09/10 06:01:22;;;;;;;;;;;;;;;27.40;39.74;100748.84;5092722;28;20429;-66
2023/09/10 06:03:47;;;;;;;;;;;;;;;27.45;39.58;100744.34;5072774;28;19920;-65
2023/09/10 06:06:12;;;;;;;;;;;;;;;27.39;39.66;100749.13;5074267;28;19916;-66
2023/09/10 06:08:37;;;;;;;;;;;;;;;27.37;39.48;100746.66;5087392;28;19920;-65
2023/09/10 06:11:03;;;;;;;;;;;;;;;27.46;39.65;100743.25;5094207;28;20018;-65
2023/09/10 06:13:30;;;;;;;;;;;;;;;27.41;39.54;100747.75;5094077;28;20304;-65
2023/09/10 06:15:55;;;;;;;;;;;;;;;27.44;39.42;100748.25;5094109;28;19912;-65
2023/09/10 06:18:21;;;;;;;;;;;;;;;27.52;39.24;100753.06;5094193;28;19916;-65
2023/09/10 06:20:46;;;;;;;;;;;;;;;27.56;39.35;100756.88;5094070;28;19954;-65
2023/09/10 06:23:11;;;;;;;;;;;;;;;27.57;39.33;100759.31;5093795;28;19923;-65
2023/09/10 06:25:37;;;;;;;;;;;;;;;27.54;39.63;100761.88;5093402;28;19916;-65
2023/09/10 06:28:02;;;;;;;;;;;;;;;27.63;39.19;100770.28;5092782;28;20268;-65
2023/09/10 06:30:28;;;;;;;;;;;;;;;27.68;39.21;100768.25;5092790;28;19919;-65
2023/09/10 06:32:53;;;;;;;;;;;;;;;27.67;39.16;100771.31;5093088;28;19911;-65
2023/09/10 06:35:18;;;;;;;;;;;;;;;27.67;38.98;100768.56;5093828;28;19912;-65
2023/09/10 06:37:45;;;;;;;;;;;;;;;27.70;39.08;100774.28;5093443;28;19963;-65
2023/09/10 06:40:10;;;;;;;;;;;;;;;27.74;39.01;100772.56;5092534;28;20393;-65
2023/09/10 06:42:36;;;;;;;;;;;;;;;27.71;38.97;100773.19;5092648;28;19943;-65
2023/09/10 06:45:01;;;;;;;;;;;;;;;27.73;38.93;100779.22;5092194;28;19920;-65
2023/09/10 06:47:27;;;;;;;;;;;;;;;27.80;38.93;100778.81;5092329;28;19912;-66
2023/09/10 06:49:52;;;;;;;;;;;;;;;27.77;39.12;100785.78;5092357;28;20010;-65
2023/09/10 06:52:17;;;;;;;;;;;;;;;27.79;38.80;100782.72;5092377;28;19912;-65
2023/09/10 06:54:43;;;;;;;;;;;;;;;27.87;38.76;100784.78;5093183;28;20419;-64
2023/09/10 06:57:08;;;;;;;;;;;;;;;27.89;38.90;100788.06;5093536;28;20361;-64
2023/09/10 06:59:34;;;;;;;;;;;;;;;27.88;38.76;100791.94;5093297;28;20291;-64
2023/09/10 07:01:59;;;;;;;;;;;;;;;27.85;39.02;100789.78;5086253;28;20007;-64
2023/09/10 07:04:25;;;;;;;;;;;;;;;27.88;39.02;100791.94;5082682;28;19927;-65
2023/09/10 07:06:51;;;;;;;;;;;;;;;27.88;38.65;100789.19;5095060;28;20006;-65
2023/09/10 07:09:17;;;;;;;;;;;;;;;27.90;38.67;100797.19;5097751;28;19912;-65
2023/09/10 07:11:43;;;;;;;;;;;;;;;27.94;38.64;100796.28;5097603;28;20720;-65
2023/09/10 07:14:08;;;;;;;;;;;;;;;28.01;38.85;100795.91;5097711;28;20002;-65
2023/09/10 07:16:34;;;;;;;;;;;;;;;28.10;38.89;100801.53;5097392;28;19916;-65
2023/09/10 07:18:59;;;;;;;;;;;;;;;28.24;38.60;100801.56;5097689;28;19973;-65
2023/09/10 07:21:24;;;;;;;;;;;;;;;28.24;38.72;100810.66;5097391;28;19920;-65
2023/09/10 07:23:50;;;;;;;;;;;;;;;28.26;38.67;100811.16;5096978;28;19916;-65
2023/09/10 07:26:15;;;;;;;;;;;;;;;28.24;38.58;100805.13;5097148;28;20280;-65
2023/09/10 07:28:41;;;;;;;;;;;;;;;28.26;38.70;100807.59;5096840;28;20015;-65
2023/09/10 07:31:07;;;;;;;;;;;;;;;28.18;38.46;100815.47;5096964;28;20396;-65
2023/09/10 07:33:33;;;;;;;;;;;;;;;28.18;38.57;100820.97;5097560;28;19928;-65
2023/09/10 07:35:58;;;;;;;;;;;;;;;28.22;38.19;100829.47;5097370;28;19912;-65
2023/09/10 07:38:23;;;;;;;;;;;;;;;28.26;38.61;100827.75;5097469;28;19997;-65
2023/09/10 07:40:48;;;;;;;;;;;;;;;28.18;38.69;100822.94;5097547;28;20249;-65
2023/09/10 07:43:14;;;;;;;;;;;;;;;28.15;38.00;100827.09;5097663;28;19912;-64
2023/09/10 07:45:39;;;;;;;;;;;;;;;28.19;38.37;100830.09;5097126;28;20015;-63
2023/09/10 07:48:05;;;;;;;;;;;;;;;28.22;38.15;100826.72;5097111;28;19958;-63
2023/09/10 07:50:30;;;;;;;;;;;;;;;28.15;38.06;100840.91;5097089;28;19938;-63
2023/09/10 07:52:55;;;;;;;;;;;;;;;28.19;38.05;100843.88;5096679;28;20436;-63
2023/09/10 07:55:21;;;;;;;;;;;;;;;28.18;38.21;100845.84;5102024;28;19911;-63
2023/09/10 07:57:47;;;;;;;;;;;;;;;28.17;38.06;100843.38;5116701;28;19912;-64
2023/09/10 08:00:12;;;;;;;;;;;;;;;28.09;38.31;100847.66;5110936;28;19920;-64
2023/09/10 08:02:37;;;;;;;;;;;;;;;28.23;38.35;100842.19;5096116;28;19912;-64
2023/09/10 08:05:04;;;;;;;;;;;;;;;28.33;37.83;100855.78;5096508;28;19958;-64
2023/09/10 08:07:29;;;;;;;;;;;;;;;28.30;38.09;100864.69;5096453;28;19912;-63
2023/09/10 08:09:54;;;;;;;;;;;;;;;28.36;38.03;100857.13;5096533;28;19912;-64
2023/09/10 08:12:19;;;;;;;;;;;;;;;28.36;38.13;100857.13;5096533;28;20049;-63
2023/09/10 08:14:45;;;;;;;;;;;;;;;28.42;37.72;100852.31;5096628;28;19938;-63
2023/09/10 08:17:10;;;;;;;;;;;;;;;28.49;37.51;100852.75;5096731;28;19912;-63
2023/09/10 08:19:35;;;;;;;;;;;;;;;28.39;37.94;100860.09;5095509;28;19912;-64
2023/09/10 08:22:00;;;;;;;;;;;;;;;28.51;37.65;100851.34;5096097;28;19991;-63
2023/09/10 08:24:26;;;;;;;;;;;;;;;28.39;38.00;100857.34;5096069;28;19916;-63
2023/09/10 08:26:51;;;;;;;;;;;;;;;28.32;38.10;100864.38;5096403;28;19912;-62
2023/09/10 08:29:16;;;;;;;;;;;;;;;28.34;38.03;100870.41;5096165;28;20391;-63
2023/09/10 08:31:42;;;;;;;;;;;;;;;28.32;38.24;100867.94;5089438;28;19999;-63
2023/09/10 08:34:07;;;;;;;;;;;;;;;28.30;37.87;100855.59;5075736;28;19912;-64
2023/09/10 08:36:32;;;;;;;;;;;;;;;28.33;38.22;100853.03;5075762;28;20002;-63
2023/09/10 08:38:57;;;;;;;;;;;;;;;28.27;38.11;100865.31;5075696;28;19920;-63
2023/09/10 08:41:32;;;;;;;;;;;;;;;28.29;37.95;100860.28;5075590;28;19912;-63
2023/09/10 08:43:58;;;;;;;;;;;;;;;28.35;38.36;100858.25;5075490;28;19917;-63
2023/09/10 08:46:29;;;;;;;;;;;;;;;28.28;38.15;100863.34;5075552;28;19920;-64
2023/09/10 08:48:55;;;;;;;;;;;;;;;28.24;37.92;100857.63;5089911;28;19919;-64
2023/09/10 08:51:21;;;;;;;;;;;;;;;28.28;38.45;100863.34;5095749;28;20269;-64
2023/09/10 08:53:47;;;;;;;;;;;;;;;28.33;38.21;100861.31;5095210;28;19912;-64
2023/09/10 08:56:13;;;;;;;;;;;;;;;28.28;37.97;100860.59;5095569;28;19974;-64
2023/09/10 08:58:39;;;;;;;;;;;;;;;28.33;37.98;100854.97;5095252;28;20486;-64
2023/09/10 09:01:06;;;;;;;;;;;;;;;28.29;38.15;100854.78;5095269;28;20379;-64
2023/09/10 09:03:32;;;;;;;;;;;;;;;28.30;38.06;100850.88;5075312;28;19928;-64
2023/09/10 09:06:01;;;;;;;;;;;;;;;28.44;37.54;100850.09;5075153;28;19920;-64
2023/09/10 09:08:30;;;;;;;;;;;;;;;28.50;37.76;100860.72;5075117;28;19912;-64
2023/09/10 09:10:57;;;;;;;;;;;;;;;28.57;37.56;100852.91;5075004;28;19920;-65
2023/09/10 09:13:23;;;;;;;;;;;;;;;28.59;37.74;100858.13;5075400;28;19916;-65
2023/09/10 09:15:49;;;;;;;;;;;;;;;28.67;37.25;100871.22;5086928;28;20000;-65
2023/09/10 09:18:15;;;;;;;;;;;;;;;28.60;37.85;100859.75;5095074;28;20003;-65
2023/09/10 09:20:44;;;;;;;;;;;;;;;28.67;37.36;100870.41;5095273;28;19912;-65
2023/09/10 09:23:29;;;;;;;;;;;;;;;28.77;37.26;100868.28;5095171;28;19919;-65
2023/09/10 09:25:58;;;;;;;;;;;;;;;28.66;37.44;100863.22;5094322;28;19973;-64
2023/09/10 09:28:25;;;;;;;;;;;;;;;28.86;37.36;100862.00;5095232;28;19940;-63
2023/09/10 09:30:51;;;;;;;;;;;;;;;28.91;37.16;100846.13;5094028;28;19920;-65
2023/09/10 09:33:16;;;;;;;;;;;;;;;28.99;36.78;100861.19;5094888;28;19912;-65
2023/09/10 09:35:43;;;;;;;;;;;;;;;29.06;37.05;100860.78;5095054;28;19919;-64
2023/09/10 09:38:09;;;;;;;;;;;;;;;29.11;36.30;100860.69;5095063;28;19993;-63
2023/09/10 09:40:36;;;;;;;;;;;;;;;29.08;36.57;100864.88;5095192;28;19973;-64
2023/09/10 09:43:01;;;;;;;;;;;;;;;29.13;37.03;100866.72;5094553;28;19919;-62
2023/09/10 09:45:26;;;;;;;;;;;;;;;29.24;36.75;100867.34;5094498;28;19974;-63
2023/09/10 09:47:53;;;;;;;;;;;;;;;29.27;36.52;100862.03;5094744;28;19923;-64
2023/09/10 09:50:19;;;;;;;;;;;;;;;29.26;36.34;100865.09;5094596;28;19912;-64
2023/09/10 09:52:50;;;;;;;;;;;;;;;29.30;36.11;100872.44;5094381;28;19978;-63
2023/09/10 09:55:15;;;;;;;;;;;;;;;29.23;36.80;100879.53;5098763;28;19915;-63
2023/09/10 09:57:41;;;;;;;;;;;;;;;29.22;36.47;100867.66;5098676;28;19912;-63
2023/09/10 10:00:09;;;;;;;;;;;;;;;29.32;36.60;100864.66;5094345;28;19919;-63
2023/09/10 10:02:34;;;;;;;;;;;;;;;29.29;36.47;100872.75;5081907;28;20056;-63
2023/09/10 10:05:00;;;;;;;;;;;;;;;29.42;36.68;100860.03;5073900;28;19921;-63
2023/09/10 10:07:28;;;;;;;;;;;;;;;29.44;36.25;100866.06;5073837;28;20102;-63
2023/09/10 10:09:53;;;;;;;;;;;;;;;29.39;35.75;100875.31;5074063;28;19920;-62
2023/09/10 10:12:19;;;;;;;;;;;;;;;29.40;35.40;100881.66;5082410;28;20375;-64
2023/09/10 10:14:44;;;;;;;;;;;;;;;29.53;36.05;100873.34;5077739;28;19918;-63
2023/09/10 10:17:10;;;;;;;;;;;;;;;29.61;35.82;100870.97;5073774;28;19978;-64
2023/09/10 10:19:36;;;;;;;;;;;;;;;29.69;36.02;100868.25;5079291;28;19916;-63
2023/09/10 10:22:04;;;;;;;;;;;;;;;29.77;35.71;100874.19;5076382;28;19912;-63
2023/09/10 10:24:30;;;;;;;;;;;;;;;29.57;35.55;100865.22;5073466;28;19955;-63
2023/09/10 10:26:57;;;;;;;;;;;;;;;29.67;35.66;100858.63;5082842;28;19948;-63
2023/09/10 10:29:22;;;;;;;;;;;;;;;29.57;35.53;100867.16;5093482;28;19920;-63
2023/09/10 10:32:17;;;;;;;;;;;;;;;29.70;35.84;100869.09;5093501;28;19965;-63
2023/09/10 10:34:50;;;;;;;;;;;;;;;29.76;35.18;100872.56;5080384;28;19912;-64
2023/09/10 10:37:17;;;;;;;;;;;;;;;29.83;35.02;100867.41;5093951;28;19919;-64
2023/09/10 10:39:50;;;;;;;;;;;;;;;29.89;35.34;100866.16;5093856;28;19912;-64
2023/09/10 10:42:17;;;;;;;;;;;;;;;29.94;35.19;100871.59;5072965;28;19913;-64
2023/09/10 10:44:43;;;;;;;;;;;;;;;29.99;35.32;100870.63;5073252;28;19920;-63
2023/09/10 10:47:12;;;;;;;;;;;;;;;30.10;34.82;100869.22;5073291;28;19919;-63
2023/09/10 10:49:40;;;;;;;;;;;;;;;30.29;35.36;100869.84;5084698;28;19916;-63
2023/09/10 10:52:06;;;;;;;;;;;;;;;30.45;35.36;100856.41;5093409;28;20322;-63
2023/09/10 10:54:33;;;;;;;;;;;;;;;30.52;34.44;100858.75;5072897;28;19912;-64
2023/09/10 10:56:58;;;;;;;;;;;;;;;30.48;34.86;100866.88;5112187;28;19912;-63
2023/09/10 10:59:24;;;;;;;;;;;;;;;30.55;34.89;100854.50;5113595;28;20044;-63
2023/09/10 11:02:14;;;;;;;;;;;;;;;30.66;34.91;100851.16;5107821;28;19965;-63
2023/09/10 11:04:53;;;;;;;;;;;;;;;30.63;33.93;100862.88;5084937;28;20285;-63
2023/09/10 11:07:18;;;;;;;;;;;;;;;30.85;34.47;100863.91;5093729;28;19982;-63
2023/09/10 11:09:43;;;;;;;;;;;;;;;31.05;33.70;100862.53;5093415;28;19916;-63
2023/09/10 11:12:09;;;;;;;;;;;;;;;31.18;34.08;100853.25;5091092;28;19912;-63
2023/09/10 11:14:53;;;;;;;;;;;;;;;31.17;33.61;100856.38;5073203;28;19916;-63
2023/09/10 11:17:22;;;;;;;;;;;;;;;31.26;33.60;100852.47;5077460;28;19915;-63
2023/09/10 11:19:47;;;;;;;;;;;;;;;31.28;33.51;100857.72;5077757;28;19924;-63
2023/09/10 11:22:13;;;;;;;;;;;;;;;31.25;33.30;100853.59;5085415;28;19916;-62
2023/09/10 11:24:40;;;;;;;;;;;;;;;31.34;33.43;100855.59;5092852;28;19917;-63
2023/09/10 11:27:21;;;;;;;;;;;;;;;31.53;33.55;100856.09;5084019;28;20295;-63
2023/09/10 11:30:05;;;;;;;;;;;;;;;31.72;33.20;100854.97;5077287;28;20433;-63
2023/09/10 11:32:31;;;;;;;;;;;;;;;31.97;32.99;100858.88;5073114;28;20387;-62
2023/09/10 11:35:15;;;;;;;;;;;;;;;32.25;33.14;100852.97;5085363;28;19912;-64
2023/09/10 11:37:41;;;;;;;;;;;;;;;32.57;32.99;100846.81;5093063;28;19912;-63
2023/09/10 11:40:07;;;;;;;;;;;;;;;32.59;31.37;100852.03;5093170;28;19912;-63
2023/09/10 11:42:33;;;;;;;;;;;;;;;32.64;32.58;100845.50;5092728;28;19920;-63
2023/09/10 11:44:58;;;;;;;;;;;;;;;32.79;32.02;100848.50;5092566;28;19927;-63
2023/09/10 11:47:25;;;;;;;;;;;;;;;32.86;32.07;100845.22;5092808;28;19946;-63
2023/09/10 11:49:59;;;;;;;;;;;;;;;33.05;32.18;100843.97;5092630;28;19912;-63
2023/09/10 11:52:24;;;;;;;;;;;;;;;33.21;32.05;100847.81;5092978;28;20324;-63
2023/09/10 11:54:49;;;;;;;;;;;;;;;33.35;32.31;100841.97;5095305;28;19958;-63
2023/09/10 11:57:17;;;;;;;;;;;;;;;33.44;31.04;100841.91;5096616;28;20287;-63
2023/09/10 11:59:48;;;;;;;;;;;;;;;33.54;31.83;100838.69;5096543;28;19912;-63
2023/09/10 12:02:14;;;;;;;;;;;;;;;33.77;31.58;100836.41;5081483;28;20361;-63
2023/09/10 12:04:39;;;;;;;;;;;;;;;34.12;31.63;100834.06;5088659;28;19924;-64
2023/09/10 12:07:04;;;;;;;;;;;;;;;34.28;32.00;100833.44;5095520;28;20326;-64
2023/09/10 12:09:30;;;;;;;;;;;;;;;34.54;31.49;100833.09;5096649;28;19912;-64
2023/09/10 12:11:57;;;;;;;;;;;;;;;34.70;30.13;100831.28;5096858;28;20414;-64
2023/09/10 12:14:23;;;;;;;;;;;;;;;34.84;30.35;100833.72;5096564;28;19916;-65
2023/09/10 12:16:49;;;;;;;;;;;;;;;35.00;30.32;100835.81;5096740;28;19957;-64
2023/09/10 12:19:15;;;;;;;;;;;;;;;34.96;28.15;100832.09;5096393;28;19913;-64
2023/09/10 12:21:41;;;;;;;;;;;;;;;35.11;30.33;100834.16;5096537;28;19920;-64
2023/09/10 12:24:07;;;;;;;;;;;;;;;35.25;29.28;100831.00;5094888;28;19916;-63
2023/09/10 12:26:32;;;;;;;;;;;;;;;35.25;29.69;100831.84;5095148;28;19993;-63
2023/09/10 12:28:58;;;;;;;;;;;;;;;35.23;28.33;100833.34;5093823;28;19913;-63
2023/09/10 12:31:23;;;;;;;;;;;;;;;35.06;29.29;100832.41;5094966;28;20311;-63